Time;durP1;ratioP1;P1;durP2;ratioP2;P2;SDS_P1;SDS_P2;PMS_P1;PMS_P2;Temp;Humidity;BMP_temperature;BMP_pressure;BME280_temperature;BME280_humidity;BME280_pressure;Samples;Min_cycle;Max_cycle;Signal;HPM_P1;HPM_P2
2021/05/06 00:05:21;;;;;;;1.90;1.80;;;10.60;99.90;;;;;;6268461;28;20573;-58
2021/05/06 00:08:53;;;;;;;1.70;1.60;;;10.60;99.90;;;;;;6250609;28;20471;-60
2021/05/06 00:35:18;;;;;;;3.90;2.40;;;10.90;99.90;;;;;;6274086;28;20483;-62
2021/05/06 00:38:23;;;;;;;2.43;2.23;;;10.80;99.90;;;;;;6274387;28;20488;-61
2021/05/06 00:41:42;;;;;;;2.33;2.17;;;10.80;99.90;;;;;;6274647;28;20473;-61
2021/05/06 00:54:55;;;;;;;3.00;2.73;;;10.70;99.90;;;;;;6274438;28;20489;-61
2021/05/06 00:58:12;;;;;;;2.27;2.07;;;10.60;99.90;;;;;;6273938;28;21093;-61
2021/05/06 01:01:33;;;;;;;2.63;2.43;;;10.60;99.90;;;;;;6274421;28;20470;-58
2021/05/06 01:04:40;;;;;;;2.53;2.37;;;10.70;99.90;;;;;;6274204;28;20879;-64
2021/05/06 01:11:17;;;;;;;3.27;2.80;;;10.80;99.90;;;;;;6268547;28;20807;-61
2021/05/06 01:14:20;;;;;;;2.67;2.47;;;10.70;99.90;;;;;;6274105;28;20466;-58
2021/05/06 01:17:22;;;;;;;2.63;2.23;;;10.80;99.90;;;;;;6274119;28;20581;-58
2021/05/06 01:20:25;;;;;;;2.70;2.33;;;10.80;99.90;;;;;;6273885;28;20980;-61
2021/05/06 01:23:30;;;;;;;2.43;2.23;;;10.80;99.90;;;;;;6273895;28;20477;-58
2021/05/06 01:26:33;;;;;;;2.73;2.50;;;10.80;99.90;;;;;;6273871;28;20469;-58
2021/05/06 01:29:39;;;;;;;2.33;1.97;;;10.70;99.90;;;;;;6264749;28;20470;-61
2021/05/06 01:32:44;;;;;;;2.10;1.90;;;10.80;99.90;;;;;;6273851;28;20474;-62
2021/05/06 01:35:51;;;;;;;4.90;2.17;;;10.80;99.90;;;;;;6274028;28;20476;-58
2021/05/06 01:39:15;;;;;;;2.23;2.03;;;10.80;99.90;;;;;;6273790;28;20939;-58
2021/05/06 01:42:19;;;;;;;2.23;1.90;;;10.70;99.90;;;;;;6272116;28;20810;-59
2021/05/06 01:58:48;;;;;;;2.20;2.10;;;10.70;99.90;;;;;;6275675;28;20435;-59
2021/05/06 02:01:50;;;;;;;1.90;1.70;;;10.70;99.90;;;;;;6278624;28;20462;-59
2021/05/06 02:04:52;;;;;;;4.30;1.70;;;10.70;99.90;;;;;;6277749;28;20973;-59
2021/05/06 02:07:58;;;;;;;3.40;1.93;;;10.70;99.90;;;;;;6278178;28;20466;-58
2021/05/06 02:11:01;;;;;;;1.80;1.70;;;10.60;99.90;;;;;;6277518;28;20972;-58
2021/05/06 02:14:06;;;;;;;2.67;1.90;;;10.60;99.90;;;;;;6277843;28;20973;-59
2021/05/06 02:17:08;;;;;;;3.30;1.77;;;10.50;99.90;;;;;;6277759;28;20486;-58
2021/05/06 02:20:12;;;;;;;1.97;1.77;;;10.50;99.90;;;;;;6278202;28;20981;-58
2021/05/06 02:23:14;;;;;;;1.80;1.70;;;10.50;99.90;;;;;;6277759;28;20504;-59
2021/05/06 02:26:17;;;;;;;1.87;1.43;;;10.50;99.90;;;;;;6277901;28;20472;-59
2021/05/06 02:29:19;;;;;;;1.63;1.30;;;10.50;99.90;;;;;;6277968;28;20481;-59
2021/05/06 02:32:22;;;;;;;1.77;1.60;;;10.40;99.90;;;;;;6277794;28;20484;-59
2021/05/06 02:35:24;;;;;;;1.53;1.40;;;10.40;99.90;;;;;;6277493;28;20813;-59
2021/05/06 02:38:26;;;;;;;1.47;1.30;;;10.50;99.90;;;;;;6277255;28;20485;-59
2021/05/06 02:41:29;;;;;;;5.67;1.70;;;10.50;99.90;;;;;;6277524;28;20473;-59
2021/05/06 02:44:35;;;;;;;1.30;1.20;;;10.50;99.90;;;;;;6277014;28;21024;-59
2021/05/06 02:47:37;;;;;;;1.93;1.40;;;10.50;99.90;;;;;;6277272;28;20481;-59
2021/05/06 02:50:43;;;;;;;1.40;1.30;;;10.40;99.90;;;;;;6277154;28;20512;-59
2021/05/06 02:53:51;;;;;;;1.70;1.57;;;10.20;99.90;;;;;;6277075;28;20469;-58
2021/05/06 02:56:59;;;;;;;1.67;1.57;;;10.20;99.90;;;;;;6276993;28;20470;-59
2021/05/06 03:03:23;;;;;;;4.90;2.03;;;10.10;99.90;;;;;;6276396;28;20970;-59
2021/05/06 03:06:28;;;;;;;1.97;1.30;;;10.00;99.90;;;;;;6276904;28;20485;-58
2021/05/06 03:09:39;;;;;;;1.93;1.77;;;9.90;99.90;;;;;;6276716;28;20816;-59
2021/05/06 03:13:05;;;;;;;1.60;1.23;;;9.90;99.90;;;;;;6276250;28;20985;-59
2021/05/06 03:22:55;;;;;;;1.73;1.50;;;9.70;99.90;;;;;;6276619;28;20470;-59
2021/05/06 03:25:57;;;;;;;1.60;1.50;;;9.70;99.90;;;;;;6276426;28;20472;-59
2021/05/06 03:29:03;;;;;;;1.87;1.50;;;9.70;99.90;;;;;;6276453;28;20466;-59
2021/05/06 03:35:39;;;;;;;1.30;1.20;;;9.70;99.90;;;;;;6270633;28;20528;-59
2021/05/06 03:42:05;;;;;;;1.50;1.27;;;9.70;99.90;;;;;;6276159;28;20459;-59
2021/05/06 03:45:26;;;;;;;1.53;1.43;;;9.70;99.90;;;;;;6275497;28;20810;-59
2021/05/06 04:16:09;;;;;;;2.93;1.60;;;9.60;99.90;;;;;;6275382;28;20482;-58
2021/05/06 04:21:27;;;;;;;1.30;1.13;;;9.80;99.90;;;;;;6275127;28;20478;-58
2021/05/06 04:26:10;;;;;;;1.67;1.43;;;10.00;99.90;;;;;;6275090;28;20496;-58
2021/05/06 04:36:03;;;;;;;1.40;1.30;;;10.10;99.90;;;;;;6274928;28;20470;-59
2021/05/06 04:39:09;;;;;;;2.03;1.33;;;10.10;99.90;;;;;;6274501;28;20985;-59
2021/05/06 04:46:07;;;;;;;1.53;1.43;;;10.10;99.90;;;;;;6274299;28;20988;-59
2021/05/06 04:55:53;;;;;;;1.80;1.70;;;10.00;99.90;;;;;;6274614;28;20481;-59
2021/05/06 04:59:19;;;;;;;1.93;1.73;;;9.90;99.90;;;;;;6274314;28;20466;-59
2021/05/06 05:05:41;;;;;;;1.70;1.60;;;10.10;99.90;;;;;;6274337;28;20473;-59
2021/05/06 05:08:48;;;;;;;1.50;1.40;;;10.10;99.90;;;;;;6274243;28;20465;-59
2021/05/06 05:11:54;;;;;;;2.40;1.67;;;10.30;99.90;;;;;;6273766;28;20474;-62
2021/05/06 05:15:09;;;;;;;1.80;1.33;;;10.40;99.90;;;;;;6273799;28;20806;-62
2021/05/06 05:25:00;;;;;;;1.63;1.50;;;10.50;99.50;;;;;;6264877;28;20485;-61
2021/05/06 05:28:05;;;;;;;1.83;1.73;;;10.60;99.70;;;;;;6273667;28;20474;-62
2021/05/06 05:31:08;;;;;;;3.27;1.27;;;10.60;99.10;;;;;;6273706;28;20470;-62
2021/05/06 05:34:22;;;;;;;2.70;1.50;;;10.40;99.80;;;;;;6276473;28;20490;-62
2021/05/06 05:37:28;;;;;;;1.00;1.00;;;10.30;99.90;;;;;;6278708;28;20816;-58
2021/05/06 05:40:36;;;;;;;1.50;1.40;;;10.60;99.90;;;;;;6278791;28;20450;-59
2021/05/06 05:43:55;;;;;;;1.23;1.13;;;10.90;99.60;;;;;;6269086;28;20462;-61
2021/05/06 05:56:58;;;;;;;1.70;1.60;;;11.20;97.90;;;;;;6302954;28;21153;-62
2021/05/06 06:00:00;;;;;;;0.93;0.83;;;11.30;97.90;;;;;;6303325;28;20476;-62
2021/05/06 06:03:03;;;;;;;1.27;1.17;;;11.20;97.50;;;;;;6302792;28;20476;-62
2021/05/06 06:06:05;;;;;;;1.13;1.10;;;11.40;97.60;;;;;;6302844;28;20465;-69
2021/05/06 06:09:07;;;;;;;3.60;1.53;;;11.60;97.40;;;;;;6302705;28;20788;-69
2021/05/06 06:12:10;;;;;;;2.07;1.87;;;12.00;97.10;;;;;;6302635;28;20477;-62
2021/05/06 06:15:17;;;;;;;1.90;1.70;;;12.20;96.50;;;;;;6290352;28;20468;-62
2021/05/06 06:18:21;;;;;;;1.90;1.60;;;12.50;96.10;;;;;;6293461;28;20803;-62
2021/05/06 06:21:26;;;;;;;1.50;1.37;;;12.60;95.60;;;;;;6288068;28;20616;-62
2021/05/06 06:24:29;;;;;;;2.33;1.23;;;12.80;94.70;;;;;;6288821;28;20470;-62
2021/05/06 06:27:32;;;;;;;1.47;1.37;;;12.90;94.70;;;;;;6288689;28;20477;-61
2021/05/06 06:30:36;;;;;;;1.27;1.17;;;13.00;93.90;;;;;;6283017;28;20470;-62
2021/05/06 06:33:38;;;;;;;1.37;1.27;;;12.90;94.00;;;;;;6287505;28;20473;-62
2021/05/06 06:36:44;;;;;;;4.07;2.03;;;13.30;93.80;;;;;;6283506;28;20469;-62
2021/05/06 06:39:46;;;;;;;2.00;1.50;;;13.70;93.10;;;;;;6289900;28;20484;-69
2021/05/06 06:42:49;;;;;;;2.27;1.57;;;14.00;92.40;;;;;;6285242;28;20623;-69
2021/05/06 06:45:52;;;;;;;1.63;1.27;;;14.10;91.70;;;;;;6289762;28;20458;-62
2021/05/06 06:48:54;;;;;;;1.50;1.40;;;14.10;90.90;;;;;;6282986;28;20466;-63
2021/05/06 06:51:56;;;;;;;1.30;1.13;;;14.40;90.50;;;;;;6287451;28;20466;-62
2021/05/06 06:54:59;;;;;;;1.50;1.17;;;14.70;89.50;;;;;;6286885;28;20821;-62
2021/05/06 06:58:09;;;;;;;2.20;1.10;;;14.40;89.60;;;;;;6276922;28;20474;-63
2021/05/06 07:01:11;;;;;;;1.20;1.10;;;14.30;89.50;;;;;;6276778;28;20470;-62
2021/05/06 07:04:14;;;;;;;1.60;1.50;;;14.00;89.80;;;;;;6276492;28;20466;-69
2021/05/06 07:07:18;;;;;;;1.83;1.10;;;13.80;90.20;;;;;;6276815;28;20470;-69
2021/05/06 07:10:21;;;;;;;1.27;1.00;;;13.60;90.70;;;;;;6276697;28;20923;-69
2021/05/06 07:13:25;;;;;;;1.37;1.00;;;13.60;90.90;;;;;;6276258;28;20482;-69
2021/05/06 07:16:28;;;;;;;1.20;1.10;;;12.90;91.50;;;;;;6276503;28;20473;-69
2021/05/06 07:19:30;;;;;;;4.00;1.60;;;12.50;92.30;;;;;;6276078;28;20846;-60
2021/05/06 07:22:32;;;;;;;1.40;1.30;;;12.40;92.60;;;;;;6276440;28;20469;-62
2021/05/06 07:25:38;;;;;;;0.80;0.80;;;12.50;93.10;;;;;;6276701;28;20600;-62
2021/05/06 07:28:43;;;;;;;1.63;1.50;;;12.30;93.40;;;;;;6276345;28;20442;-62
2021/05/06 07:31:50;;;;;;;1.93;1.30;;;12.40;92.90;;;;;;6276247;28;20815;-62
2021/05/06 07:34:56;;;;;;;1.90;1.40;;;12.40;93.00;;;;;;6275942;28;20458;-62
2021/05/06 07:38:00;;;;;;;1.10;1.10;;;12.30;93.30;;;;;;6276120;28;20469;-69
2021/05/06 07:41:07;;;;;;;2.63;1.37;;;12.40;93.40;;;;;;6275762;28;20501;-69
2021/05/06 07:44:12;;;;;;;1.40;1.30;;;12.50;93.00;;;;;;6275851;28;20540;-69
2021/05/06 07:47:16;;;;;;;7.03;1.60;;;12.20;93.30;;;;;;6275822;28;20559;-69
2021/05/06 07:50:22;;;;;;;1.70;1.00;;;12.30;93.30;;;;;;6271228;28;20607;-62
2021/05/06 07:53:35;;;;;;;1.10;1.00;;;12.40;92.70;;;;;;6277765;28;20809;-62
2021/05/06 07:56:41;;;;;;;1.83;1.20;;;12.40;92.40;;;;;;6282793;28;20995;-63
2021/05/06 07:59:44;;;;;;;0.80;0.80;;;12.20;92.70;;;;;;6286258;28;20482;-62
2021/05/06 08:02:47;;;;;;;1.20;1.10;;;11.70;93.60;;;;;;6288107;28;20472;-62
2021/05/06 08:05:53;;;;;;;1.27;1.17;;;11.80;93.70;;;;;;6284430;28;20627;-64
2021/05/06 08:08:56;;;;;;;4.60;1.30;;;11.90;93.10;;;;;;6299060;28;20465;-61
2021/05/06 08:12:01;;;;;;;0.87;0.87;;;12.10;93.20;;;;;;6299533;28;21041;-64
2021/05/06 08:15:07;;;;;;;2.20;1.23;;;12.30;92.50;;;;;;6299137;28;20572;-61
2021/05/06 08:18:10;;;;;;;1.33;0.70;;;12.50;91.40;;;;;;6293807;28;20472;-64
2021/05/06 08:21:12;;;;;;;1.57;0.90;;;12.30;89.70;;;;;;6296783;28;20519;-66
2021/05/06 08:24:14;;;;;;;0.77;0.67;;;12.30;89.70;;;;;;6290693;28;20575;-66
2021/05/06 08:27:17;;;;;;;1.30;0.83;;;12.40;89.90;;;;;;6299862;28;20471;-65
2021/05/06 08:30:21;;;;;;;1.27;0.70;;;12.30;90.30;;;;;;6299585;28;20811;-65
2021/05/06 08:33:23;;;;;;;1.77;0.77;;;12.10;91.00;;;;;;6299024;28;20568;-65
2021/05/06 08:36:25;;;;;;;0.67;0.67;;;12.20;90.20;;;;;;6299542;28;20465;-63
2021/05/06 08:39:27;;;;;;;0.80;0.70;;;12.00;90.00;;;;;;6294717;28;20530;-66
2021/05/06 08:42:30;;;;;;;1.70;1.60;;;11.60;90.50;;;;;;6295045;28;20469;-65
2021/05/06 08:45:36;;;;;;;2.00;1.00;;;11.50;90.70;;;;;;6299332;28;20477;-61
2021/05/06 08:48:39;;;;;;;1.40;0.97;;;11.40;90.90;;;;;;6298863;28;20484;-64
2021/05/06 08:51:43;;;;;;;1.77;1.30;;;11.30;91.60;;;;;;6299248;28;20473;-63
2021/05/06 08:54:45;;;;;;;0.80;0.80;;;11.60;91.20;;;;;;6294102;28;20469;-65
2021/05/06 08:57:50;;;;;;;1.83;1.20;;;11.80;91.00;;;;;;6299369;28;20580;-65
2021/05/06 09:00:53;;;;;;;1.47;0.90;;;11.90;90.70;;;;;;6298857;28;20475;-62
2021/05/06 09:03:55;;;;;;;1.00;0.70;;;12.00;90.70;;;;;;6298959;28;20473;-65
2021/05/06 09:06:58;;;;;;;0.90;0.80;;;12.20;90.50;;;;;;6291504;28;20466;-65
2021/05/06 09:10:00;;;;;;;1.83;1.10;;;12.20;90.10;;;;;;6298622;28;20469;-64
2021/05/06 09:13:03;;;;;;;0.93;0.80;;;12.10;89.80;;;;;;6298073;28;21018;-65
2021/05/06 09:16:07;;;;;;;1.70;0.83;;;11.90;90.00;;;;;;6282214;28;20540;-65
2021/05/06 09:19:11;;;;;;;2.30;0.90;;;11.80;90.10;;;;;;6273704;28;20506;-64
2021/05/06 09:22:14;;;;;;;3.00;0.90;;;11.60;90.60;;;;;;6273989;28;20613;-66
2021/05/06 09:25:39;;;;;;;1.03;0.93;;;11.50;90.70;;;;;;6273708;28;20596;-65
2021/05/06 09:28:42;;;;;;;1.00;0.90;;;11.60;90.40;;;;;;6280246;28;20544;-61
2021/05/06 09:31:45;;;;;;;1.53;0.83;;;11.60;90.20;;;;;;6291401;28;21049;-63
2021/05/06 09:34:53;;;;;;;2.00;0.90;;;11.70;90.40;;;;;;6289376;28;20462;-62
2021/05/06 09:37:58;;;;;;;1.17;0.80;;;11.80;90.50;;;;;;6274199;28;20477;-65
2021/05/06 09:41:02;;;;;;;1.00;0.80;;;11.90;90.30;;;;;;6274066;28;20466;-64
2021/05/06 09:44:10;;;;;;;1.20;1.10;;;12.00;90.30;;;;;;6298137;28;20548;-66
2021/05/06 09:47:24;;;;;;;1.03;0.70;;;12.20;90.20;;;;;;6298386;28;20518;-66
2021/05/06 09:50:30;;;;;;;0.50;0.50;;;12.50;87.60;;;;;;6292082;28;20489;-65
2021/05/06 09:53:34;;;;;;;1.20;0.63;;;12.60;86.80;;;;;;6278943;28;20466;-64
2021/05/06 09:56:38;;;;;;;1.27;0.70;;;12.90;86.20;;;;;;6291248;28;20465;-64
2021/05/06 09:59:40;;;;;;;0.70;0.60;;;12.80;85.20;;;;;;6278733;28;20527;-65
2021/05/06 10:02:43;;;;;;;2.30;0.77;;;12.80;85.90;;;;;;6271213;28;20812;-65
2021/05/06 10:05:57;;;;;;;1.00;0.80;;;13.10;86.70;;;;;;6271710;28;20519;-66
2021/05/06 10:09:03;;;;;;;0.77;0.60;;;13.40;85.80;;;;;;6271381;28;20497;-65
2021/05/06 10:12:08;;;;;;;0.90;0.70;;;13.60;84.80;;;;;;6290384;28;20485;-64
2021/05/06 10:15:14;;;;;;;0.60;0.60;;;13.70;84.20;;;;;;6295782;28;20472;-65
2021/05/06 10:18:18;;;;;;;2.30;0.70;;;13.90;83.00;;;;;;6295758;28;20846;-64
2021/05/06 10:21:22;;;;;;;0.70;0.60;;;13.90;83.60;;;;;;6297804;28;20807;-63
2021/05/06 10:24:24;;;;;;;0.80;0.63;;;14.20;82.40;;;;;;6299850;28;20473;-64
2021/05/06 10:27:27;;;;;;;0.60;0.40;;;14.30;81.60;;;;;;6300468;28;20465;-64
2021/05/06 10:30:30;;;;;;;1.20;1.10;;;14.10;81.70;;;;;;6299791;28;20572;-64
2021/05/06 10:33:36;;;;;;;2.30;0.60;;;13.90;82.10;;;;;;6300009;28;20484;-65
2021/05/06 10:36:40;;;;;;;1.50;0.73;;;13.50;81.80;;;;;;6299773;28;20465;-65
2021/05/06 10:39:43;;;;;;;0.63;0.60;;;13.20;84.10;;;;;;6300049;28;20469;-65
2021/05/06 10:42:46;;;;;;;0.63;0.60;;;13.10;84.10;;;;;;6286466;28;20461;-65
2021/05/06 10:45:59;;;;;;;0.50;0.50;;;13.20;84.40;;;;;;6292688;28;20473;-66
2021/05/06 10:49:03;;;;;;;1.33;0.60;;;13.20;84.40;;;;;;6299460;28;20484;-66
2021/05/06 10:52:07;;;;;;;0.50;0.43;;;12.90;84.10;;;;;;6299985;28;20479;-69
2021/05/06 10:55:11;;;;;;;0.80;0.77;;;12.70;85.20;;;;;;6299618;28;20984;-65
2021/05/06 10:58:38;;;;;;;1.53;0.70;;;12.70;85.30;;;;;;6299932;28;20465;-64
2021/05/06 11:01:41;;;;;;;0.77;0.67;;;12.80;84.40;;;;;;6284749;28;20475;-63
2021/05/06 11:04:45;;;;;;;1.50;1.00;;;12.80;84.40;;;;;;6300059;28;20472;-65
2021/05/06 11:08:25;;;;;;;0.80;0.80;;;12.90;83.90;;;;;;6299553;28;20531;-64
2021/05/06 11:11:27;;;;;;;1.07;0.97;;;12.70;84.50;;;;;;6298973;28;20991;-65
2021/05/06 11:14:30;;;;;;;0.70;0.50;;;12.50;84.80;;;;;;6299242;28;20473;-66
2021/05/06 11:17:41;;;;;;;0.97;0.93;;;12.30;86.40;;;;;;6288718;28;20466;-66
2021/05/06 11:20:55;;;;;;;0.80;0.80;;;12.20;87.20;;;;;;6274743;28;20488;-65
2021/05/06 11:24:12;;;;;;;0.57;0.57;;;12.40;86.50;;;;;;6286391;28;20481;-64
2021/05/06 11:27:20;;;;;;;0.90;0.80;;;12.70;86.00;;;;;;6298818;28;20473;-65
2021/05/06 11:30:35;;;;;;;0.73;0.73;;;12.70;86.00;;;;;;6298947;28;20948;-66
2021/05/06 11:33:38;;;;;;;1.07;0.93;;;12.60;86.40;;;;;;6295616;28;20485;-66
2021/05/06 11:36:41;;;;;;;3.90;0.70;;;12.70;86.30;;;;;;6274756;28;20474;-66
2021/05/06 11:40:21;;;;;;;0.87;0.63;;;12.90;85.90;;;;;;6286845;28;20956;-67
2021/05/06 11:43:24;;;;;;;1.13;0.70;;;12.70;86.10;;;;;;6295866;28;20475;-62
2021/05/06 11:46:27;;;;;;;0.80;0.80;;;13.00;86.40;;;;;;6289921;28;20478;-66
2021/05/06 11:49:29;;;;;;;1.40;0.70;;;13.10;85.60;;;;;;6290552;28;20928;-64
2021/05/06 11:52:38;;;;;;;0.80;0.70;;;13.00;86.00;;;;;;6298517;28;20417;-65
2021/05/06 11:55:43;;;;;;;1.60;0.90;;;13.00;86.00;;;;;;6298142;28;20436;-66
2021/05/06 11:58:45;;;;;;;1.80;1.00;;;13.20;85.70;;;;;;6297891;28;20778;-66
2021/05/06 12:01:48;;;;;;;0.90;0.80;;;13.50;84.30;;;;;;6298377;28;20445;-66
2021/05/06 12:04:52;;;;;;;0.80;0.70;;;13.80;84.10;;;;;;6288966;28;20505;-61
2021/05/06 12:08:06;;;;;;;1.13;0.90;;;14.00;82.30;;;;;;6298768;28;20461;-67
2021/05/06 12:11:09;;;;;;;1.73;0.87;;;14.00;81.90;;;;;;6276614;28;20470;-66
2021/05/06 12:14:12;;;;;;;1.07;0.70;;;14.00;81.90;;;;;;6274498;28;20473;-65
2021/05/06 12:17:18;;;;;;;1.03;0.93;;;14.20;81.60;;;;;;6299431;28;20480;-67
2021/05/06 12:20:21;;;;;;;1.40;0.60;;;14.40;80.90;;;;;;6300146;28;20476;-65
2021/05/06 12:23:25;;;;;;;1.73;1.10;;;14.30;79.40;;;;;;6297031;28;20972;-66
2021/05/06 12:26:28;;;;;;;1.03;0.93;;;14.30;80.50;;;;;;6297710;28;20794;-66
2021/05/06 12:29:31;;;;;;;3.03;1.10;;;14.60;78.70;;;;;;6284193;28;20480;-65
2021/05/06 12:32:34;;;;;;;1.10;1.00;;;14.80;78.60;;;;;;6275222;28;20493;-65
2021/05/06 12:35:50;;;;;;;0.80;0.80;;;14.80;75.70;;;;;;6289986;28;20484;-64
2021/05/06 12:39:07;;;;;;;1.03;0.93;;;14.90;76.20;;;;;;6297534;28;20469;-66
2021/05/06 12:42:10;;;;;;;1.83;1.10;;;14.90;74.40;;;;;;6296638;28;21019;-65
2021/05/06 12:45:25;;;;;;;2.83;0.83;;;15.10;72.00;;;;;;6297363;28;20522;-67
2021/05/06 12:48:42;;;;;;;1.40;1.30;;;15.40;71.70;;;;;;6273167;28;20827;-63
2021/05/06 12:51:45;;;;;;;2.20;0.90;;;15.40;70.90;;;;;;6272502;28;20488;-62
2021/05/06 12:54:48;;;;;;;1.67;1.10;;;15.20;70.40;;;;;;6271844;28;20484;-62
2021/05/06 12:58:12;;;;;;;3.30;1.30;;;14.70;70.90;;;;;;6272526;28;20478;-63
2021/05/06 13:01:14;;;;;;;2.50;0.73;;;14.80;71.00;;;;;;6272111;28;20474;-64
2021/05/06 13:04:20;;;;;;;0.80;0.80;;;15.00;70.10;;;;;;6272147;28;20961;-64
2021/05/06 13:07:26;;;;;;;3.40;1.30;;;15.30;69.40;;;;;;6271964;28;20470;-64
2021/05/06 13:10:35;;;;;;;1.30;1.17;;;15.30;68.80;;;;;;6267394;28;20491;-60
2021/05/06 13:13:41;;;;;;;4.87;1.60;;;15.20;69.30;;;;;;6287962;28;20488;-64
2021/05/06 13:16:48;;;;;;;1.63;1.10;;;15.20;69.20;;;;;;6298848;28;20923;-64
2021/05/06 13:19:51;;;;;;;1.67;1.10;;;15.30;67.90;;;;;;6298586;28;20936;-64
2021/05/06 13:23:04;;;;;;;1.60;1.20;;;14.90;68.40;;;;;;6298916;28;20484;-63
2021/05/06 13:26:08;;;;;;;2.13;1.27;;;14.20;69.90;;;;;;6298564;28;20472;-65
2021/05/06 13:29:14;;;;;;;3.97;1.10;;;14.20;71.00;;;;;;6298843;28;20606;-62
2021/05/06 13:32:17;;;;;;;3.00;1.20;;;14.30;72.20;;;;;;6298714;28;20465;-65
2021/05/06 13:35:20;;;;;;;1.30;1.20;;;14.50;72.40;;;;;;6298748;28;20489;-64
2021/05/06 13:38:22;;;;;;;1.23;1.13;;;14.60;72.30;;;;;;6298620;28;20535;-64
2021/05/06 13:41:27;;;;;;;1.40;1.10;;;14.70;72.50;;;;;;6296275;28;20469;-64
2021/05/06 13:44:30;;;;;;;1.87;1.40;;;14.90;71.30;;;;;;6273891;28;20480;-65
2021/05/06 13:47:32;;;;;;;2.30;1.37;;;14.80;70.70;;;;;;6273864;28;20470;-65
2021/05/06 13:50:35;;;;;;;1.93;1.40;;;14.90;71.40;;;;;;6274070;28;20472;-67
2021/05/06 13:53:37;;;;;;;1.73;1.37;;;15.20;70.10;;;;;;6273557;28;20816;-62
2021/05/06 13:56:41;;;;;;;1.60;1.43;;;15.20;68.90;;;;;;6278613;28;20481;-62
2021/05/06 13:59:43;;;;;;;1.53;1.20;;;15.50;69.60;;;;;;6278256;28;20494;-61
2021/05/06 14:02:47;;;;;;;1.40;1.30;;;15.60;67.60;;;;;;6278355;28;20485;-61
2021/05/06 14:05:50;;;;;;;1.23;0.97;;;15.70;67.30;;;;;;6278123;28;20796;-61
2021/05/06 14:08:55;;;;;;;1.10;1.00;;;15.50;67.40;;;;;;6278132;28;20469;-59
2021/05/06 14:11:58;;;;;;;2.13;1.23;;;15.40;68.30;;;;;;6273225;28;20478;-62
2021/05/06 14:15:00;;;;;;;1.70;1.20;;;15.20;68.70;;;;;;6292622;28;20487;-60
2021/05/06 14:18:03;;;;;;;1.20;1.10;;;14.60;71.50;;;;;;6302174;28;20479;-61
2021/05/06 14:21:08;;;;;;;2.57;1.33;;;14.70;71.40;;;;;;6302666;28;20484;-60
2021/05/06 14:24:12;;;;;;;2.10;2.00;;;15.10;70.40;;;;;;6292864;28;20470;-60
2021/05/06 14:27:17;;;;;;;2.97;1.57;;;15.30;69.00;;;;;;6277670;28;20497;-60
2021/05/06 14:30:20;;;;;;;1.93;1.20;;;15.40;68.40;;;;;;6281417;28;20507;-60
2021/05/06 14:33:22;;;;;;;3.17;1.43;;;15.40;68.00;;;;;;6301791;28;20487;-60
2021/05/06 14:36:24;;;;;;;1.23;1.13;;;15.30;68.60;;;;;;6302246;28;20465;-60
2021/05/06 14:39:27;;;;;;;3.20;1.47;;;14.60;70.10;;;;;;6301957;28;20480;-59
2021/05/06 14:42:30;;;;;;;2.67;1.60;;;14.70;70.40;;;;;;6302224;28;20583;-60
2021/05/06 14:45:32;;;;;;;2.60;1.37;;;15.00;70.30;;;;;;6301904;28;20519;-61
2021/05/06 14:48:35;;;;;;;2.70;1.40;;;15.40;69.10;;;;;;6302129;28;20465;-60
2021/05/06 14:51:37;;;;;;;2.33;1.40;;;15.50;67.70;;;;;;6301491;28;20991;-62
2021/05/06 14:54:40;;;;;;;5.17;1.50;;;15.70;67.40;;;;;;6301813;28;20530;-65
2021/05/06 14:57:45;;;;;;;1.57;1.47;;;15.60;68.20;;;;;;6301501;28;20527;-60
2021/05/06 15:00:50;;;;;;;1.60;1.50;;;15.60;67.30;;;;;;6301565;28;20469;-65
2021/05/06 15:03:52;;;;;;;6.73;1.90;;;15.50;67.40;;;;;;6301085;28;20503;-65
2021/05/06 15:06:55;;;;;;;4.73;1.50;;;15.50;68.20;;;;;;6301157;28;20557;-62
2021/05/06 15:09:57;;;;;;;2.73;1.70;;;15.40;68.20;;;;;;6288492;28;20473;-61
2021/05/06 15:13:00;;;;;;;2.87;1.60;;;15.30;68.50;;;;;;6276176;28;20511;-65
2021/05/06 15:16:02;;;;;;;2.23;1.67;;;15.20;69.30;;;;;;6288225;28;20954;-67
2021/05/06 15:19:04;;;;;;;1.97;1.73;;;15.10;69.70;;;;;;6283657;28;20480;-63
2021/05/06 15:22:07;;;;;;;2.80;1.80;;;14.80;70.80;;;;;;6301151;28;20477;-65
2021/05/06 15:25:20;;;;;;;2.30;1.90;;;14.70;71.40;;;;;;6281610;28;20470;-64
2021/05/06 15:28:23;;;;;;;3.33;1.57;;;14.70;71.60;;;;;;6276313;28;20466;-61
2021/05/06 15:31:27;;;;;;;2.43;1.93;;;14.70;71.40;;;;;;6291665;28;20484;-61
2021/05/06 15:34:32;;;;;;;4.73;1.83;;;14.50;72.00;;;;;;6300579;28;20638;-61
2021/05/06 15:37:39;;;;;;;2.53;1.70;;;14.40;72.70;;;;;;6300506;28;20438;-61
2021/05/06 15:40:41;;;;;;;3.10;1.97;;;14.50;72.80;;;;;;6300767;28;20451;-60
2021/05/06 15:43:44;;;;;;;4.10;1.57;;;14.50;73.10;;;;;;6299920;28;20461;-61
2021/05/06 15:46:58;;;;;;;4.00;1.70;;;14.50;73.10;;;;;;6300720;28;20446;-60
2021/05/06 15:50:05;;;;;;;2.57;2.17;;;14.60;73.50;;;;;;6299929;28;20457;-61
2021/05/06 15:53:09;;;;;;;3.73;1.90;;;14.30;74.40;;;;;;6300654;28;20457;-59
2021/05/06 15:56:12;;;;;;;1.93;1.50;;;14.40;75.10;;;;;;6300329;28;20487;-57
2021/05/06 15:59:15;;;;;;;3.33;1.90;;;14.50;75.50;;;;;;6300588;28;20471;-58
2021/05/06 16:02:20;;;;;;;3.30;1.50;;;14.30;74.70;;;;;;6293602;28;20800;-60
2021/05/06 16:05:24;;;;;;;2.80;1.40;;;14.40;74.80;;;;;;6275067;28;20482;-60
2021/05/06 16:08:27;;;;;;;2.13;1.60;;;14.50;75.30;;;;;;6275077;28;20481;-61
2021/05/06 16:11:29;;;;;;;2.93;1.67;;;14.40;75.00;;;;;;6274642;28;20819;-60
2021/05/06 16:14:32;;;;;;;2.10;1.90;;;14.40;75.80;;;;;;6287410;28;20472;-61
2021/05/06 16:17:35;;;;;;;2.17;1.80;;;14.20;76.40;;;;;;6298938;28;20484;-60
2021/05/06 16:20:40;;;;;;;2.00;1.50;;;13.90;77.60;;;;;;6291050;28;20465;-61
2021/05/06 16:23:44;;;;;;;2.17;1.20;;;13.90;78.60;;;;;;6277416;28;20474;-61
2021/05/06 16:26:48;;;;;;;1.53;1.33;;;14.00;78.80;;;;;;6282583;28;20482;-61
2021/05/06 16:29:51;;;;;;;1.43;1.20;;;14.10;78.90;;;;;;6298020;28;20534;-61
2021/05/06 16:32:54;;;;;;;1.90;1.70;;;14.10;79.40;;;;;;6299551;28;20473;-60
2021/05/06 16:36:05;;;;;;;1.83;1.50;;;14.00;78.90;;;;;;6299188;28;20508;-60
2021/05/06 16:39:18;;;;;;;1.70;1.40;;;14.00;79.40;;;;;;6299477;28;20557;-60
2021/05/06 16:42:32;;;;;;;2.10;1.83;;;13.80;79.90;;;;;;6299151;28;20469;-61
2021/05/06 16:45:36;;;;;;;2.13;1.43;;;13.80;80.50;;;;;;6299216;28;20469;-61
2021/05/06 16:48:38;;;;;;;1.83;1.47;;;13.80;80.20;;;;;;6293533;28;20498;-61
2021/05/06 16:51:40;;;;;;;1.90;1.50;;;13.60;80.90;;;;;;6274678;28;20515;-61
2021/05/06 16:54:43;;;;;;;2.27;1.70;;;13.40;81.10;;;;;;6274027;28;20513;-61
2021/05/06 16:57:45;;;;;;;2.50;1.80;;;13.30;81.30;;;;;;6274220;28;20474;-61
2021/05/06 17:00:48;;;;;;;2.47;1.90;;;13.10;80.40;;;;;;6274109;28;20465;-61
2021/05/06 17:03:51;;;;;;;2.87;2.10;;;13.00;80.80;;;;;;6273732;28;20462;-61
2021/05/06 17:06:56;;;;;;;5.63;1.80;;;13.00;80.30;;;;;;6274364;28;20470;-62
2021/05/06 17:10:00;;;;;;;2.10;1.77;;;13.00;80.30;;;;;;6273705;28;20521;-62
2021/05/06 17:13:07;;;;;;;2.80;2.10;;;13.20;80.00;;;;;;6273705;28;21009;-62
2021/05/06 17:16:14;;;;;;;2.70;2.33;;;13.20;80.20;;;;;;6290880;28;20474;-63
2021/05/06 17:19:16;;;;;;;3.93;3.07;;;13.20;79.80;;;;;;6298767;28;20502;-63
2021/05/06 17:22:19;;;;;;;3.23;2.60;;;13.10;79.70;;;;;;6297180;28;20786;-63
2021/05/06 17:25:21;;;;;;;3.87;2.30;;;13.00;80.40;;;;;;6292001;28;20527;-63
2021/05/06 17:28:24;;;;;;;5.20;3.53;;;12.90;80.60;;;;;;6298756;28;21039;-64
2021/05/06 17:31:27;;;;;;;2.60;2.40;;;13.00;81.00;;;;;;6302307;28;20469;-61
2021/05/06 17:34:29;;;;;;;4.57;2.77;;;12.70;81.50;;;;;;6301962;28;20483;-62
2021/05/06 17:37:32;;;;;;;11.70;6.17;;;12.60;82.50;;;;;;6303233;28;20469;-62
2021/05/06 17:40:35;;;;;;;2.83;2.50;;;12.60;83.10;;;;;;6303665;28;20776;-63
2021/05/06 17:43:37;;;;;;;5.67;2.63;;;12.50;83.50;;;;;;6303561;28;20460;-63
2021/05/06 17:46:41;;;;;;;4.73;2.33;;;12.50;83.90;;;;;;6303921;28;20455;-62
2021/05/06 17:49:44;;;;;;;3.70;2.73;;;12.50;84.20;;;;;;6303181;28;20773;-64
2021/05/06 17:52:46;;;;;;;5.90;3.40;;;12.60;84.60;;;;;;6303772;28;20463;-62
2021/05/06 17:55:48;;;;;;;5.10;3.60;;;12.60;84.70;;;;;;6303270;28;20487;-63
2021/05/06 17:58:53;;;;;;;4.50;2.90;;;12.40;85.40;;;;;;6303280;28;20946;-63
2021/05/06 18:01:56;;;;;;;5.17;3.03;;;12.40;86.20;;;;;;6302571;28;20462;-62
2021/05/06 18:04:58;;;;;;;4.33;3.50;;;12.10;87.80;;;;;;6303823;28;20461;-60
2021/05/06 18:08:01;;;;;;;3.77;3.33;;;12.00;89.00;;;;;;6299487;28;20473;-61
2021/05/06 18:11:06;;;;;;;4.63;3.40;;;11.90;90.30;;;;;;6293957;28;20460;-62
2021/05/06 18:14:08;;;;;;;5.57;3.37;;;12.00;90.40;;;;;;6300860;28;21002;-61
2021/05/06 18:17:11;;;;;;;4.43;3.97;;;12.00;90.50;;;;;;6322751;28;20464;-61
2021/05/06 18:20:14;;;;;;;8.10;3.03;;;12.00;90.70;;;;;;6302944;28;20605;-62
2021/05/06 18:23:17;;;;;;;6.33;3.87;;;12.10;90.70;;;;;;6300873;28;20468;-61
2021/05/06 18:26:19;;;;;;;3.90;3.50;;;12.20;90.80;;;;;;6301741;28;20461;-67